Time;durP1;ratioP1;P1;durP2;ratioP2;P2;SDS_P1;SDS_P2;PMS_P1;PMS_P2;Temp;Humidity;BMP_temperature;BMP_pressure;BME280_temperature;BME280_humidity;BME280_pressure;Samples;Min_cycle;Max_cycle;Signal;HPM_P1;HPM_P2
2022/05/17 00:01:29;;;;;;;43.28;25.88;;;;;;;-148.88;100.00;75740.66;5015880;28;20033;-86
2022/05/17 00:03:54;;;;;;;38.40;25.17;;;;;;;-148.88;100.00;75736.59;5033687;28;20117;-85
2022/05/17 00:06:20;;;;;;;41.65;25.20;;;;;;;-148.88;100.00;75744.72;5033184;28;20017;-85
2022/05/17 00:08:45;;;;;;;33.50;23.05;;;;;;;-148.88;100.00;75748.78;5034043;28;20025;-85
2022/05/17 00:11:11;;;;;;;36.42;23.40;;;;;;;-148.88;100.00;75750.81;5033784;28;20030;-85
2022/05/17 00:13:36;;;;;;;38.70;22.65;;;;;;;-148.88;100.00;75760.97;5033334;28;20108;-84
2022/05/17 00:16:02;;;;;;;37.85;22.83;;;;;;;-148.88;100.00;75769.09;5015424;28;20059;-84
2022/05/17 00:18:29;;;;;;;33.85;22.00;;;;;;;-148.88;100.00;75769.09;5015341;28;20463;-85
2022/05/17 00:20:56;;;;;;;34.65;22.20;;;;;;;-148.88;100.00;75775.19;5033346;28;20113;-85
2022/05/17 00:23:21;;;;;;;35.60;22.58;;;;;;;-148.88;100.00;75777.22;5015386;28;20557;-85
2022/05/17 00:25:47;;;;;;;34.05;21.85;;;;;;;-148.88;100.00;75777.22;5033067;28;20053;-85
2022/05/17 00:28:21;;;;;;;35.97;21.33;;;;;;;-148.88;100.00;75785.34;5033510;28;20032;-85
2022/05/17 00:30:48;;;;;;;34.25;21.85;;;;;;;-148.88;100.00;75789.41;5015920;28;20501;-85
2022/05/17 00:33:14;;;;;;;36.17;20.15;;;;;;;-148.88;100.00;75793.47;5033292;28;20471;-85
2022/05/17 00:35:39;;;;;;;36.53;21.30;;;;;;;-148.88;100.00;75805.66;5015383;28;20021;-85
2022/05/17 00:38:05;;;;;;;31.10;20.88;;;;;;;-148.88;100.00;75801.59;5015440;28;20093;-85
2022/05/17 00:40:30;;;;;;;30.73;20.35;;;;;;;-148.88;100.00;75815.81;5015856;28;20021;-85
2022/05/17 00:42:55;;;;;;;33.67;20.00;;;;;;;-148.88;100.00;75821.91;5015439;28;20025;-85
2022/05/17 00:45:21;;;;;;;35.22;20.40;;;;;;;-148.88;100.00;75815.81;5015455;28;20037;-85
2022/05/17 00:47:58;;;;;;;36.60;21.40;;;;;;;-148.88;100.00;75809.72;5015617;28;20032;-85
2022/05/17 00:50:41;;;;;;;34.65;21.13;;;;;;;-148.88;100.00;75809.72;5015428;28;20025;-85
2022/05/17 00:53:11;;;;;;;33.17;19.52;;;;;;;-148.88;100.00;75821.91;5032935;28;20033;-85
2022/05/17 00:55:57;;;;;;;35.25;19.90;;;;;;;-148.88;100.00;75817.84;5015242;28;20029;-85
2022/05/17 00:58:40;;;;;;;31.33;19.50;;;;;;;-148.88;100.00;75817.84;5015173;28;20112;-85
2022/05/17 01:01:25;;;;;;;;;;;;;;;-148.88;100.00;75817.84;5033658;28;20035;-85
2022/05/17 01:04:07;;;;;;;29.52;19.08;;;;;;;-148.88;100.00;75813.78;5015210;28;19952;-85
2022/05/17 01:06:47;;;;;;;29.05;18.55;;;;;;;-148.88;100.00;75821.91;5015144;28;20030;-85
2022/05/17 01:09:13;;;;;;;29.02;17.83;;;;;;;-148.88;100.00;75819.88;5032839;28;20026;-86
2022/05/17 01:11:39;;;;;;;31.10;18.33;;;;;;;-148.88;100.00;75821.91;5014963;28;20036;-85
2022/05/17 01:16:49;;;;;;;34.53;18.13;;;;;;;-148.88;100.00;75823.94;5033246;28;20087;-84
2022/05/17 01:19:15;;;;;;;29.85;17.17;;;;;;;-148.88;100.00;75842.22;5060014;22;20512;-82
2022/05/17 01:21:40;;;;;;;29.67;16.67;;;;;;;-148.88;100.00;75832.06;5036046;28;20512;-83
2022/05/17 01:24:06;;;;;;;27.02;16.95;;;;;;;-148.88;100.00;75834.09;5036410;28;20027;-83
2022/05/17 01:26:36;;;;;;;29.58;17.35;;;;;;;-148.88;100.00;75834.09;5036537;28;20025;-83
2022/05/17 01:29:01;;;;;;;27.77;15.63;;;;;;;-148.88;100.00;75830.03;5036292;28;20021;-82
2022/05/17 01:31:28;;;;;;;27.75;16.08;;;;;;;-148.88;100.00;75830.03;5036025;28;20162;-83
2022/05/17 01:33:53;;;;;;;28.70;15.98;;;;;;;-148.88;100.00;75832.06;5036328;28;20104;-82
2022/05/17 01:36:22;;;;;;;28.27;15.95;;;;;;;-148.88;100.00;75834.09;5018663;28;20443;-84
2022/05/17 01:38:51;;;;;;;22.65;15.10;;;;;;;-148.88;100.00;75825.97;5037321;28;20079;-83
2022/05/17 01:41:17;;;;;;;25.13;14.48;;;;;;;-148.88;100.00;75828.00;5036157;28;20029;-83
2022/05/17 01:43:42;;;;;;;27.80;15.43;;;;;;;-148.88;100.00;75834.09;5036002;28;20021;-84
2022/05/17 01:46:09;;;;;;;27.33;15.55;;;;;;;-148.88;100.00;75842.22;5018185;28;20025;-85
2022/05/17 01:48:35;;;;;;;29.23;15.13;;;;;;;-148.88;100.00;75842.22;5035318;28;20018;-85
2022/05/17 01:51:00;;;;;;;27.73;16.27;;;;;;;-148.88;100.00;75838.16;5035531;28;20433;-85
2022/05/17 01:53:26;;;;;;;27.10;15.77;;;;;;;-148.88;100.00;75842.22;5036183;28;20415;-83
2022/05/17 01:55:51;;;;;;;23.92;13.80;;;;;;;-148.88;100.00;75834.09;5036195;28;20033;-85
2022/05/17 01:58:17;;;;;;;28.70;14.88;;;;;;;-148.88;100.00;75834.09;5035460;28;20044;-83
2022/05/17 02:00:44;;;;;;;29.55;14.40;;;;;;;-148.88;100.00;75846.28;5035209;28;20021;-85
2022/05/17 02:03:09;;;;;;;24.60;13.85;;;;;;;-148.88;100.00;75850.34;5035253;28;20402;-84
2022/05/17 02:05:35;;;;;;;25.80;14.68;;;;;;;-148.88;100.00;75846.28;5035099;28;20029;-85
2022/05/17 02:08:00;;;;;;;30.85;15.15;;;;;;;-148.88;100.00;75854.41;5035124;28;20030;-84
2022/05/17 02:10:25;;;;;;;28.63;14.38;;;;;;;-148.88;100.00;75846.28;5017693;28;20154;-85
2022/05/17 02:12:55;;;;;;;19.98;13.32;;;;;;;-148.88;100.00;75850.34;5035055;28;20036;-84
2022/05/17 02:15:21;;;;;;;24.30;13.18;;;;;;;-148.88;100.00;75858.47;5034918;28;20026;-85
2022/05/17 02:17:46;;;;;;;26.52;13.63;;;;;;;-148.88;100.00;75864.56;5034794;28;20036;-84
2022/05/17 02:20:12;;;;;;;23.13;12.30;;;;;;;-148.88;100.00;75862.53;5034449;28;20482;-85
2022/05/17 02:22:37;;;;;;;23.75;13.48;;;;;;;-148.88;100.00;75864.56;5034947;28;20025;-85
2022/05/17 02:25:03;;;;;;;27.25;13.90;;;;;;;-148.88;100.00;75862.53;5034925;28;20109;-85
2022/05/17 02:27:28;;;;;;;23.80;13.38;;;;;;;-148.88;100.00;75866.59;5034284;28;20086;-85
2022/05/17 02:29:55;;;;;;;25.67;13.35;;;;;;;-148.88;100.00;75872.69;5033498;28;20048;-86
2022/05/17 02:32:21;;;;;;;27.73;14.05;;;;;;;-148.88;100.00;75878.78;5034291;28;20025;-85
2022/05/17 02:34:46;;;;;;;24.58;13.75;;;;;;;-148.88;100.00;75882.84;5016522;28;20047;-85
2022/05/17 02:37:12;;;;;;;21.60;13.13;;;;;;;-148.88;100.00;75882.84;5016569;28;20048;-85
2022/05/17 02:39:37;;;;;;;24.38;14.30;;;;;;;-148.88;100.00;75895.03;5034277;28;20071;-85
2022/05/17 02:42:03;;;;;;;21.88;12.63;;;;;;;-148.88;100.00;75893.00;5034179;28;20100;-85
2022/05/17 02:44:29;;;;;;;23.83;13.70;;;;;;;-148.88;100.00;75903.16;5034393;28;20498;-83
2022/05/17 02:46:57;;;;;;;23.52;12.82;;;;;;;-148.88;100.00;75907.22;5034727;28;20117;-85
2022/05/17 02:49:23;;;;;;;24.95;12.63;;;;;;;-148.88;100.00;75911.28;5034546;28;20017;-85
2022/05/17 02:51:49;;;;;;;24.15;11.95;;;;;;;-148.88;100.00;75911.28;5034543;28;20025;-85
2022/05/17 02:54:14;;;;;;;19.88;12.10;;;;;;;-148.88;100.00;75919.41;5016749;28;20515;-84
2022/05/17 02:56:40;;;;;;;21.08;11.57;;;;;;;-148.88;100.00;75917.38;5034097;28;20025;-86
2022/05/17 02:59:05;;;;;;;27.08;11.85;;;;;;;-148.88;100.00;75925.50;5034296;28;20025;-85
2022/05/17 03:01:31;;;;;;;22.35;12.40;;;;;;;-148.88;100.00;75927.53;5033944;28;20061;-84
2022/05/17 03:03:56;;;;;;;18.02;11.75;;;;;;;-148.88;100.00;75931.59;5034234;28;20024;-85
2022/05/17 03:06:22;;;;;;;17.27;11.75;;;;;;;-148.88;100.00;75935.66;5035114;28;20100;-85
2022/05/17 03:08:47;;;;;;;23.38;12.32;;;;;;;-148.88;100.00;75951.91;5016250;28;20018;-85
2022/05/17 03:11:12;;;;;;;23.75;10.85;;;;;;;-148.88;100.00;75951.91;5033872;28;20029;-85
2022/05/17 03:13:38;;;;;;;24.80;11.82;;;;;;;-148.88;100.00;75947.84;5016020;28;20022;-85
2022/05/17 03:16:04;;;;;;;20.50;11.32;;;;;;;-148.88;100.00;75947.84;5033564;28;20025;-84
2022/05/17 03:18:29;;;;;;;21.30;11.90;;;;;;;-148.88;100.00;75958.00;5033595;28;20025;-85
2022/05/17 03:20:54;;;;;;;26.77;12.27;;;;;;;-148.88;100.00;75958.00;5033470;28;20030;-85
2022/05/17 03:23:20;;;;;;;22.90;12.25;;;;;;;-148.88;100.00;75966.13;5034183;28;20056;-86
2022/05/17 03:25:45;;;;;;;25.50;12.55;;;;;;;-148.88;100.00;75964.09;5034187;28;20036;-85
2022/05/17 03:28:12;;;;;;;23.45;12.80;;;;;;;-148.88;100.00;75964.09;5034597;28;20501;-84
2022/05/17 03:30:39;;;;;;;24.13;11.75;;;;;;;-148.88;100.00;75966.13;5016663;28;20021;-84
2022/05/17 03:33:04;;;;;;;27.40;13.35;;;;;;;-148.88;100.00;75972.22;5033748;28;20018;-83
2022/05/17 03:35:30;;;;;;;29.67;13.80;;;;;;;-148.88;100.00;75976.28;5033706;28;20033;-84
2022/05/17 03:37:55;;;;;;;28.17;13.80;;;;;;;-148.88;100.00;75972.22;5034125;28;20479;-83
2022/05/17 03:40:20;;;;;;;25.40;13.13;;;;;;;-148.88;100.00;75972.22;5033295;28;20017;-85
2022/05/17 03:42:46;;;;;;;27.67;13.38;;;;;;;-148.88;100.00;75976.28;5015835;28;20040;-85
2022/05/17 03:45:12;;;;;;;24.42;13.93;;;;;;;-148.88;100.00;75976.28;5033305;28;20544;-86
2022/05/17 03:47:37;;;;;;;27.55;14.85;;;;;;;-148.88;100.00;75968.16;5033456;28;20475;-84
2022/05/17 03:50:04;;;;;;;27.45;14.15;;;;;;;-148.88;100.00;75974.25;5033298;28;20068;-85
2022/05/17 03:52:31;;;;;;;30.42;15.18;;;;;;;-148.88;100.00;75984.41;5015248;28;20036;-84
2022/05/17 03:54:57;;;;;;;21.23;13.13;;;;;;;-148.88;100.00;75984.41;5033359;28;20029;-86
2022/05/17 03:57:24;;;;;;;27.63;15.63;;;;;;;-148.88;100.00;75984.41;5033420;28;20049;-86
2022/05/17 03:59:49;;;;;;;31.92;15.38;;;;;;;-148.88;100.00;75988.47;5033205;28;20108;-85
2022/05/17 04:02:15;;;;;;;32.08;15.60;;;;;;;-148.88;100.00;75980.34;5015717;28;20044;-85
2022/05/17 04:04:40;;;;;;;27.02;15.13;;;;;;;-148.88;100.00;75986.44;5033041;28;20032;-84
2022/05/17 04:07:06;;;;;;;24.17;14.45;;;;;;;-148.88;100.00;75974.25;5032929;28;20034;-84
2022/05/17 04:09:31;;;;;;;27.45;15.20;;;;;;;-148.88;100.00;75988.47;5033156;28;20451;-84
2022/05/17 04:11:56;;;;;;;26.48;15.25;;;;;;;-148.88;100.00;75984.41;5015566;28;20039;-84
2022/05/17 04:14:21;;;;;;;34.30;15.55;;;;;;;-148.88;100.00;75984.41;5032953;28;20022;-84
2022/05/17 04:16:47;;;;;;;29.90;15.77;;;;;;;-148.88;100.00;75992.53;5032816;28;20087;-85
2022/05/17 04:19:15;;;;;;;29.42;16.23;;;;;;;-148.88;100.00;75986.44;5032633;28;20048;-85
2022/05/17 04:21:41;;;;;;;29.80;16.02;;;;;;;-148.88;100.00;75982.38;5032804;28;20091;-85
2022/05/17 04:24:07;;;;;;;32.58;16.75;;;;;;;-148.88;100.00;75988.47;5015078;28;20025;-86
2022/05/17 04:26:32;;;;;;;28.08;15.70;;;;;;;-148.88;100.00;75986.44;5015057;28;20025;-85
2022/05/17 04:28:57;;;;;;;28.52;15.95;;;;;;;-148.88;100.00;75980.34;5015012;28;20057;-86
2022/05/17 04:31:23;;;;;;;29.73;16.38;;;;;;;-148.88;100.00;75978.31;5032569;28;20083;-85
2022/05/17 04:33:48;;;;;;;25.38;15.00;;;;;;;-148.88;100.00;75982.38;5014632;28;20398;-85
2022/05/17 04:36:13;;;;;;;29.48;16.67;;;;;;;-148.88;100.00;75986.44;5014800;28;20483;-86
2022/05/17 04:38:38;;;;;;;28.65;15.00;;;;;;;-148.88;100.00;75992.53;5032725;28;20021;-85
2022/05/17 04:41:04;;;;;;;31.70;16.40;;;;;;;-148.88;100.00;75996.59;5014758;28;20383;-86
2022/05/17 04:43:30;;;;;;;31.08;16.23;;;;;;;-148.88;100.00;75992.53;5032706;28;20038;-85
2022/05/17 04:45:56;;;;;;;29.80;16.95;;;;;;;-148.88;100.00;75990.50;5033097;28;20022;-85
2022/05/17 04:48:24;;;;;;;27.58;16.60;;;;;;;-148.88;100.00;75992.53;5015257;28;20028;-84
2022/05/17 04:50:51;;;;;;;31.45;16.02;;;;;;;-148.88;100.00;75984.41;5033130;28;20052;-85
2022/05/17 04:53:16;;;;;;;29.30;16.33;;;;;;;-148.88;100.00;75986.44;5035198;28;20026;-84
2022/05/17 04:55:41;;;;;;;26.13;15.63;;;;;;;-148.88;100.00;75980.34;5019004;28;20025;-86
2022/05/17 04:58:07;;;;;;;32.30;15.88;;;;;;;-148.88;100.00;75980.34;5019030;28;20032;-85
2022/05/17 05:00:33;;;;;;;27.50;15.25;;;;;;;-148.88;100.00;75976.28;5018574;28;20027;-85
2022/05/17 05:02:58;;;;;;;31.95;16.40;;;;;;;-148.88;100.00;75978.31;5019384;28;20052;-85
2022/05/17 05:05:24;;;;;;;30.25;16.73;;;;;;;-148.88;100.00;75980.34;5020461;28;20112;-86
2022/05/17 05:07:49;;;;;;;30.17;16.52;;;;;;;-148.88;100.00;75974.25;5036180;28;20041;-84
2022/05/17 05:10:15;;;;;;;30.50;17.15;;;;;;;-148.88;100.00;75960.03;5036721;28;20045;-85
2022/05/17 05:12:41;;;;;;;31.98;17.20;;;;;;;-148.88;100.00;75951.91;5018829;28;20458;-84
2022/05/17 05:15:07;;;;;;;31.23;17.30;;;;;;;-148.88;100.00;75947.84;5036044;28;20025;-83
2022/05/17 05:17:36;;;;;;;32.95;17.63;;;;;;;-148.88;100.00;75947.84;5036408;28;20386;-84
2022/05/17 05:20:03;;;;;;;30.95;17.35;;;;;;;-148.88;100.00;75931.59;5036813;28;20028;-84
2022/05/17 05:22:32;;;;;;;32.33;16.95;;;;;;;-148.88;100.00;75917.38;5036126;28;20037;-84
2022/05/17 05:24:58;;;;;;;33.53;16.65;;;;;;;-148.88;100.00;75911.28;5036132;28;20026;-83
2022/05/17 05:27:23;;;;;;;34.63;16.15;;;;;;;-148.88;100.00;75907.22;5036088;28;20432;-84
2022/05/17 05:29:49;;;;;;;31.13;16.92;;;;;;;-148.88;100.00;75903.16;5036109;28;20018;-85
2022/05/17 05:32:14;;;;;;;31.33;17.02;;;;;;;-148.88;100.00;75895.03;5036207;28;20037;-85
2022/05/17 05:34:39;;;;;;;27.73;16.65;;;;;;;-148.88;100.00;75886.91;5036298;28;20029;-85
2022/05/17 05:37:05;;;;;;;30.63;15.98;;;;;;;-148.88;100.00;75878.78;5036356;28;20021;-84
2022/05/17 05:39:30;;;;;;;27.90;16.55;;;;;;;-148.88;100.00;75870.66;5036287;28;20025;-84
2022/05/17 05:41:56;;;;;;;26.75;15.88;;;;;;;-148.88;100.00;75854.41;5036113;28;20029;-84
2022/05/17 05:44:21;;;;;;;30.95;16.80;;;;;;;-148.88;100.00;75842.22;5035893;28;20443;-84
2022/05/17 05:46:46;;;;;;;33.35;17.05;;;;;;;-148.88;100.00;75823.94;5035660;28;20028;-84
2022/05/17 05:49:12;;;;;;;31.70;16.95;;;;;;;-148.88;100.00;75809.72;5018077;28;20024;-84
2022/05/17 05:51:37;;;;;;;35.47;16.50;;;;;;;-148.88;100.00;75807.69;5035855;28;20463;-84
2022/05/17 05:54:03;;;;;;;34.25;16.67;;;;;;;-148.88;100.00;75797.53;5035837;28;20021;-84
2022/05/17 05:56:29;;;;;;;28.27;16.20;;;;;;;-148.88;100.00;75773.16;5035901;28;20107;-82
2022/05/17 05:58:54;;;;;;;26.50;16.10;;;;;;;-148.88;100.00;75769.09;5035277;28;20092;-83
2022/05/17 06:01:20;;;;;;;28.13;14.48;;;;;;;-148.88;100.00;75750.81;5035967;28;20037;-82
2022/05/17 06:03:46;;;;;;;28.48;14.52;;;;;;;-148.88;100.00;75732.53;5036209;28;20390;-83
2022/05/17 06:06:12;;;;;;;27.50;15.95;;;;;;;-148.88;100.00;75724.41;5035851;28;20490;-83
2022/05/17 06:08:37;;;;;;;27.52;15.90;;;;;;;-148.88;100.00;75708.16;5017373;28;20494;-83
2022/05/17 06:11:03;;;;;;;28.08;14.90;;;;;;;-148.88;100.00;75712.22;5035857;28;20048;-84
2022/05/17 06:13:29;;;;;;;29.70;14.27;;;;;;;-148.88;100.00;75704.09;5035565;28;20026;-83
2022/05/17 06:15:55;;;;;;;20.10;12.68;;;;;;;-148.88;100.00;75700.03;5035253;28;20021;-83
2022/05/17 06:18:21;;;;;;;26.10;13.55;;;;;;;-148.88;100.00;75700.03;5017573;28;20079;-82
2022/05/17 06:20:51;;;;;;;25.02;13.23;;;;;;;-148.88;100.00;75698.00;5035206;28;20025;-82
2022/05/17 06:23:17;;;;;;;23.55;12.18;;;;;;;-148.88;100.00;75698.00;5035310;28;20032;-82
2022/05/17 06:25:42;;;;;;;21.77;12.88;;;;;;;-148.88;100.00;75695.97;5018087;28;20108;-83
2022/05/17 06:28:07;;;;;;;27.27;12.90;;;;;;;-148.88;100.00;75700.03;5035455;28;20021;-82
2022/05/17 06:30:33;;;;;;;22.70;12.35;;;;;;;-148.88;100.00;75698.00;5035015;28;20024;-82
2022/05/17 06:33:00;;;;;;;24.45;13.77;;;;;;;-148.88;100.00;75691.91;5035192;28;20029;-83
2022/05/17 06:35:26;;;;;;;22.00;12.40;;;;;;;-148.88;100.00;75704.09;5035245;28;20077;-82
2022/05/17 06:37:52;;;;;;;21.35;12.60;;;;;;;-148.88;99.58;75698.00;5017446;28;20044;-83
2022/05/17 06:40:17;;;;;;;24.15;14.15;;;;;;;-148.88;99.70;75695.97;5017059;28;20082;-82
2022/05/17 06:42:42;;;;;;;25.30;12.90;;;;;;;-148.88;100.00;75681.75;5017589;28;20025;-83
2022/05/17 06:45:08;;;;;;;25.65;13.30;;;;;;;-148.88;99.75;75687.84;5035153;28;20386;-82
2022/05/17 06:47:33;;;;;;;24.75;13.57;;;;;;;-148.88;100.00;75665.50;5016956;28;20021;-83
2022/05/17 06:49:59;;;;;;;25.80;15.00;;;;;;;-148.88;100.00;75655.34;5034800;28;20109;-83
2022/05/17 06:52:26;;;;;;;22.88;13.13;;;;;;;-148.88;100.00;75669.56;5034930;28;20364;-84
2022/05/17 06:54:51;;;;;;;23.70;12.98;;;;;;;-148.88;99.21;75671.59;5035621;28;20540;-83
2022/05/17 06:57:17;;;;;;;24.77;12.73;;;;;;;-148.88;98.89;75667.53;5035171;28;20021;-82
2022/05/17 06:59:44;;;;;;;22.08;13.35;;;;;;;-148.88;99.57;75657.38;5017167;28;20025;-83
2022/05/17 07:02:10;;;;;;;22.98;12.77;;;;;;;-148.88;98.77;75641.13;5034271;28;20041;-84
2022/05/17 07:04:36;;;;;;;17.05;10.35;;;;;;;-148.88;94.36;75655.34;5035716;28;20103;-81
2022/05/17 07:07:03;;;;;;;22.02;11.05;;;;;;;-148.88;95.51;75659.41;5017087;28;20021;-82
2022/05/17 07:09:29;;;;;;;21.75;11.52;;;;;;;-148.88;96.03;75651.28;5034202;28;20395;-82
2022/05/17 07:14:39;;;;;;;18.10;11.52;;;;;;;-148.88;96.80;75639.09;5033992;28;20037;-82
2022/05/17 07:17:06;;;;;;;16.13;9.45;;;;;;;-148.88;95.84;75639.09;5033869;28;20021;-82
2022/05/17 07:19:33;;;;;;;22.55;11.32;;;;;;;-148.88;95.17;75626.91;5034242;28;20025;-81
2022/05/17 07:22:00;;;;;;;14.77;10.18;;;;;;;-148.88;94.44;75602.53;5016060;28;20029;-83
2022/05/17 07:24:25;;;;;;;15.75;8.98;;;;;;;-148.88;93.48;75594.44;5016111;28;20441;-82
2022/05/17 07:26:50;;;;;;;16.38;9.52;;;;;;;-148.88;93.43;75596.44;5034115;28;20029;-82
2022/05/17 07:29:16;;;;;;;16.70;9.15;;;;;;;-148.88;91.46;75616.75;5034059;28;20100;-84
2022/05/17 07:31:41;;;;;;;14.30;8.95;;;;;;;-148.88;91.86;75602.53;5033801;28;20474;-83
2022/05/17 07:34:06;;;;;;;16.02;9.15;;;;;;;-148.88;92.07;75578.19;5034389;28;20064;-86
2022/05/17 07:36:31;;;;;;;16.20;8.38;;;;;;;-148.88;92.54;75572.09;5033952;28;20079;-84
2022/05/17 07:38:57;;;;;;;18.95;8.82;;;;;;;-148.88;90.45;75600.50;5033750;28;20026;-84
2022/05/17 07:41:23;;;;;;;16.02;8.60;;;;;;;-148.88;91.97;75598.47;5033588;28;20029;-85
2022/05/17 07:43:48;;;;;;;18.58;9.73;;;;;;;-148.88;91.34;75570.03;5033500;28;20017;-83
2022/05/17 07:46:14;;;;;;;14.20;7.55;;;;;;;-148.88;88.63;75570.03;5033600;28;20021;-86
2022/05/17 07:48:39;;;;;;;15.48;7.82;;;;;;;-148.88;88.30;75563.97;5033557;28;20029;-87
2022/05/17 07:51:06;;;;;;;14.50;8.88;;;;;;;-148.88;88.61;75545.69;5033686;28;20025;-88
2022/05/17 07:53:32;;;;;;;13.65;7.97;;;;;;;-148.88;89.24;75539.59;5033462;28;20375;-87
2022/05/17 07:55:59;;;;;;;15.10;9.05;;;;;;;-148.88;90.87;75533.50;5033680;28;20534;-86
2022/05/17 07:58:24;;;;;;;15.63;8.63;;;;;;;-148.88;90.60;75537.56;5033412;28;20470;-86
2022/05/17 08:00:50;;;;;;;13.23;7.90;;;;;;;-148.88;88.68;75525.38;5033590;28;20032;-87
2022/05/17 08:03:16;;;;;;;18.85;9.07;;;;;;;-148.88;88.21;75537.56;5033466;28;20079;-87
2022/05/17 08:05:43;;;;;;;12.95;7.95;;;;;;;-148.88;89.05;75529.44;5033246;28;20494;-88
2022/05/17 08:08:08;;;;;;;14.57;8.18;;;;;;;-148.88;88.99;75513.19;5015572;28;20022;-87
2022/05/17 08:10:33;;;;;;;15.40;7.55;;;;;;;-148.88;86.62;75523.34;5033361;28;20022;-87
2022/05/17 08:12:59;;;;;;;14.98;7.85;;;;;;;-148.88;87.16;75509.13;5033160;28;20025;-88
2022/05/17 08:15:25;;;;;;;12.73;7.15;;;;;;;-148.88;88.04;75484.75;5033166;28;20448;-87
2022/05/17 08:17:50;;;;;;;14.18;7.38;;;;;;;-148.88;87.38;75476.63;5033150;28;20052;-85
2022/05/17 08:20:18;;;;;;;15.57;7.45;;;;;;;-148.88;85.14;75484.75;5033438;28;20061;-85
2022/05/17 08:22:45;;;;;;;12.70;7.43;;;;;;;-148.88;84.89;75476.63;5015281;28;20040;-85
2022/05/17 08:27:58;;;;;;;12.52;7.25;;;;;;;-148.88;85.37;75464.44;5020877;28;20149;-85
2022/05/17 08:30:26;;;;;;;16.02;7.15;;;;;;;-148.88;84.98;75452.25;5019129;28;20021;-86
2022/05/17 08:36:03;;;;;;;14.02;7.80;;;;;;;-148.88;82.15;75462.41;5037245;28;20036;-86
2022/05/17 08:38:38;;;;;;;14.98;8.05;;;;;;;-148.88;84.06;75444.13;5036346;28;20036;-86
2022/05/17 08:41:13;;;;;;;13.05;7.10;;;;;;;-148.88;84.87;75419.75;5037015;28;20032;-86
2022/05/17 08:44:01;;;;;;;11.15;6.20;;;;;;;-148.88;84.51;75387.25;5019327;28;20065;-86
2022/05/17 08:46:26;;;;;;;13.43;5.40;;;;;;;-148.88;79.71;75393.34;5019103;28;20052;-85
2022/05/17 08:49:17;;;;;;;8.98;4.85;;;;;;;-148.88;79.89;75391.31;5036893;28;20474;-85
2022/05/17 08:52:01;;;;;;;9.57;4.95;;;;;;;-148.88;76.43;75383.19;5036855;28;20029;-85
2022/05/17 08:54:30;;;;;;;9.48;4.63;;;;;;;-148.88;75.70;75375.06;5018878;28;20030;-86
2022/05/17 08:57:13;;;;;;;11.60;4.22;;;;;;;-148.88;72.90;75381.16;5018714;28;20049;-84
2022/05/17 08:59:47;;;;;;;7.57;4.28;;;;;;;-148.88;73.54;75362.88;5036583;28;20467;-86
2022/05/17 09:03:02;;;;;;;8.32;4.50;;;;;;;-148.88;71.25;75352.72;5036415;28;20116;-84
2022/05/17 09:05:42;;;;;;;11.68;4.60;;;;;;;-148.88;73.51;75332.41;5031376;28;20040;-85
2022/05/17 09:08:33;;;;;;;11.50;5.25;;;;;;;-148.88;74.77;75326.31;5036307;28;20479;-85
2022/05/17 09:11:20;;;;;;;9.93;5.50;;;;;;;-148.88;74.48;75303.97;5036449;28;20029;-84
2022/05/17 09:13:59;;;;;;;12.63;5.68;;;;;;;-148.88;72.27;75330.38;5036252;28;20068;-85
2022/05/17 09:16:27;;;;;;;9.40;6.07;;;;;;;-148.88;73.32;75314.13;5036139;28;20053;-84
2022/05/17 09:18:53;;;;;;;11.52;6.25;;;;;;;-148.88;73.00;75310.06;5036207;28;20079;-83
2022/05/17 09:21:35;;;;;;;9.45;5.57;;;;;;;-148.88;72.52;75285.69;5001966;28;20491;-84
2022/05/17 09:24:07;;;;;;;9.43;5.38;;;;;;;-148.88;71.37;75273.53;5035929;28;20040;-84
2022/05/17 09:26:33;;;;;;;9.88;5.18;;;;;;;-148.88;69.49;75289.75;5036306;28;20036;-84
2022/05/17 09:29:10;;;;;;;8.15;3.92;;;;;;;-148.88;68.51;75279.59;5035973;28;20025;-84
2022/05/17 09:31:37;;;;;;;9.15;4.70;;;;;;;-148.88;70.17;75228.84;5035990;28;20363;-85
2022/05/17 09:34:08;;;;;;;9.70;4.30;;;;;;;-148.88;68.85;75220.72;5036132;28;20030;-84
2022/05/17 09:37:05;;;;;;;9.63;4.20;;;;;;;-148.88;64.13;75228.84;5035810;28;20025;-84
2022/05/17 09:39:31;;;;;;;12.38;4.05;;;;;;;-148.88;64.76;75224.78;5023509;28;20033;-85
2022/05/17 09:42:01;;;;;;;7.72;3.63;;;;;;;-148.88;66.33;75190.25;5035792;28;20025;-84
2022/05/17 09:44:29;;;;;;;8.20;4.20;;;;;;;-148.88;65.28;75153.69;5017953;28;20409;-84
2022/05/17 09:47:02;;;;;;;9.23;3.90;;;;;;;-148.88;65.29;75167.91;5036182;28;20029;-84
2022/05/17 09:52:32;;;;;;;11.23;3.45;;;;;;;-148.88;63.91;75186.19;5036101;28;20044;-84
2022/05/17 09:55:21;;;;;;;8.95;3.47;;;;;;;-148.88;65.93;75174.00;5017985;28;20482;-83
2022/05/17 09:57:58;;;;;;;9.75;3.80;;;;;;;-148.88;64.29;75208.53;5035787;28;20079;-83
2022/05/17 10:00:30;;;;;;;8.15;3.70;;;;;;;-148.88;62.69;75226.81;5035473;28;20025;-84
2022/05/17 10:03:19;;;;;;;9.45;3.60;;;;;;;-148.88;62.57;75169.94;5035727;28;20029;-84
2022/05/17 10:05:48;;;;;;;7.28;3.72;;;;;;;-148.88;63.30;75127.28;5035571;28;20052;-84
2022/05/17 10:08:13;;;;;;;8.27;4.00;;;;;;;-148.88;61.44;75188.22;5035486;28;20479;-84
2022/05/17 10:10:47;;;;;;;8.83;3.83;;;;;;;-148.88;61.40;75171.97;5035280;28;20107;-85
2022/05/17 10:13:32;;;;;;;9.85;4.40;;;;;;;-148.88;61.57;75212.59;5017389;28;20022;-83
2022/05/17 10:16:03;;;;;;;10.63;4.18;;;;;;;-148.88;62.90;75194.31;5035106;28;20029;-84
2022/05/17 10:18:49;;;;;;;11.48;4.53;;;;;;;-148.88;62.57;75171.97;5034828;28;20112;-84
2022/05/17 10:21:23;;;;;;;8.73;5.10;;;;;;;-148.88;62.88;75196.34;5034896;28;20056;-84
2022/05/17 10:24:02;;;;;;;9.23;5.20;;;;;;;-148.88;65.49;75115.09;5035075;28;20068;-84
2022/05/17 10:26:41;;;;;;;9.35;4.65;;;;;;;-148.88;59.71;75062.31;5017471;28;20026;-85
2022/05/17 10:29:15;;;;;;;9.48;4.90;;;;;;;-148.88;60.43;75050.13;5035013;28;20441;-84
2022/05/17 10:31:52;;;;;;;10.10;4.45;;;;;;;-148.88;60.07;75037.94;5035034;28;20017;-85
2022/05/17 10:34:38;;;;;;;9.68;4.45;;;;;;;-148.88;61.49;75037.94;5034713;28;20160;-84
2022/05/17 10:37:09;;;;;;;8.38;4.13;;;;;;;-148.88;58.47;75062.31;5034934;28;20390;-84
2022/05/17 10:39:38;;;;;;;9.32;4.45;;;;;;;-148.88;58.49;75054.19;5034511;28;20013;-84
2022/05/17 10:42:04;;;;;;;9.25;4.50;;;;;;;-148.88;58.19;75094.81;5016733;28;20057;-84
2022/05/17 10:44:47;;;;;;;11.35;4.40;;;;;;;-148.88;58.54;75086.69;5034502;28;20394;-86
2022/05/17 10:47:55;;;;;;;9.55;4.32;;;;;;;-148.88;58.88;75106.97;5034838;28;20064;-85
2022/05/17 10:50:45;;;;;;;9.07;4.30;;;;;;;-148.88;59.04;75106.97;5026069;28;20033;-85
2022/05/17 10:53:19;;;;;;;6.28;4.13;;;;;;;-148.88;58.88;75163.84;5034678;28;20032;-84
2022/05/17 10:56:31;;;;;;;10.90;3.78;;;;;;;-148.88;59.90;75137.44;5034282;28;20064;-84
2022/05/17 10:59:07;;;;;;;12.27;4.35;;;;;;;-148.88;61.49;75119.16;4973485;28;20030;-84
2022/05/17 11:01:43;;;;;;;6.85;3.85;;;;;;;-148.88;60.05;75143.53;5026138;28;20044;-85
2022/05/17 11:04:18;;;;;;;10.35;4.05;;;;;;;-148.88;60.99;75147.59;5016886;28;20037;-84
2022/05/17 11:07:11;;;;;;;9.52;4.75;;;;;;;-148.88;61.50;75149.63;5034439;28;20060;-85
2022/05/17 11:09:50;;;;;;;7.50;4.40;;;;;;;-148.88;60.93;75135.41;5034159;28;20520;-85
2022/05/17 11:12:22;;;;;;;8.40;4.13;;;;;;;-148.88;60.65;75119.16;5033977;28;20076;-84
2022/05/17 11:15:20;;;;;;;9.35;3.83;;;;;;;-148.88;59.71;75113.06;5034050;28;20075;-84
2022/05/17 11:17:56;;;;;;;8.77;3.83;;;;;;;-148.88;60.96;75098.84;5033807;28;20029;-85
2022/05/17 11:20:26;;;;;;;10.55;3.25;;;;;;;-148.88;61.21;75123.22;5033758;28;20033;-85
2022/05/17 11:23:24;;;;;;;8.65;3.63;;;;;;;-148.88;59.03;75106.97;5033739;28;20409;-85
2022/05/17 11:26:11;;;;;;;8.65;3.42;;;;;;;-148.88;57.71;75100.88;5016166;28;20026;-84